Time;durP1;ratioP1;P1;durP2;ratioP2;P2;SDS_P1;SDS_P2;PMS_P1;PMS_P2;Temp;Humidity;BMP_temperature;BMP_pressure;BME280_temperature;BME280_humidity;BME280_pressure;Samples;Min_cycle;Max_cycle;Signal;HPM_P1;HPM_P2
2022/04/15 00:02:14;;;;;;;22.02;14.38;;;;;;;;;;12663902;23;20189;-76
2022/04/15 00:07:15;;;;;;;15.18;11.75;;;;;;;;;;12667983;23;20188;-76
2022/04/15 00:12:27;;;;;;;14.27;12.88;;;;;;;;;;12666997;23;20193;-77
2022/04/15 00:17:28;;;;;;;18.83;13.18;;;;;;;;;;12665643;23;20783;-75
2022/04/15 00:22:29;;;;;;;14.38;11.88;;;;;;;;;;12666336;23;20185;-75
2022/04/15 00:27:31;;;;;;;10.75;9.82;;;;;;;;;;12661174;23;20507;-77
2022/04/15 00:32:32;;;;;;;16.30;10.48;;;;;;;;;;12664253;23;20205;-75
2022/04/15 00:37:33;;;;;;;11.90;8.93;;;;;;;;;;12663828;23;20181;-75
2022/04/15 00:42:34;;;;;;;10.32;9.02;;;;;;;;;;12662409;23;20201;-75
2022/04/15 00:47:45;;;;;;;11.02;9.63;;;;;;;;;;12662969;23;20256;-75
2022/04/15 00:52:47;;;;;;;9.07;7.90;;;;;;;;;;12662258;23;20647;-75
2022/04/15 00:57:50;;;;;;;8.15;7.30;;;;;;;;;;12662876;23;20657;-75
2022/04/15 01:02:51;;;;;;;8.35;7.63;;;;;;;;;;12659580;23;20283;-75
2022/04/15 01:07:55;;;;;;;9.15;6.63;;;;;;;;;;12660862;23;20199;-74
2022/04/15 01:12:57;;;;;;;9.30;7.00;;;;;;;;;;12661718;23;20276;-75
2022/04/15 01:17:59;;;;;;;8.75;7.95;;;;;;;;;;12660802;23;20665;-75
2022/04/15 01:23:10;;;;;;;7.07;6.05;;;;;;;;;;12662984;23;20188;-75
2022/04/15 01:28:11;;;;;;;9.13;6.95;;;;;;;;;;12661465;23;20912;-75
2022/04/15 01:33:12;;;;;;;9.98;7.55;;;;;;;;;;12660177;23;20239;-75
2022/04/15 01:38:17;;;;;;;9.63;7.85;;;;;;;;;;12661521;23;20183;-73
2022/04/15 01:43:18;;;;;;;8.85;8.00;;;;;;;;;;12659383;23;20224;-71
2022/04/15 01:48:19;;;;;;;10.40;8.55;;;;;;;;;;12661678;23;20269;-75
2022/04/15 01:53:22;;;;;;;10.95;9.23;;;;;;;;;;12659791;23;20184;-75
2022/04/15 01:58:23;;;;;;;11.23;8.52;;;;;;;;;;12657047;23;20165;-75
2022/04/15 02:03:24;;;;;;;10.23;8.45;;;;;;;;;;12654528;23;20602;-76
2022/04/15 02:08:25;;;;;;;8.40;7.57;;;;;;;;;;12655978;23;20255;-75
2022/04/15 02:13:27;;;;;;;11.40;7.55;;;;;;;;;;12660897;23;20718;-75
2022/04/15 02:18:28;;;;;;;10.45;7.43;;;;;;;;;;12659393;23;20185;-75
2022/04/15 02:23:29;;;;;;;8.23;7.53;;;;;;;;;;12662033;23;20263;-77
2022/04/15 02:28:30;;;;;;;11.15;7.97;;;;;;;;;;12665616;23;20184;-76
2022/04/15 02:33:31;;;;;;;8.77;8.00;;;;;;;;;;12659346;23;20276;-76
2022/04/15 02:38:32;;;;;;;8.73;7.82;;;;;;;;;;12633780;23;20212;-76
2022/04/15 02:43:33;;;;;;;10.80;9.10;;;;;;;;;;12659213;23;20678;-75
2022/04/15 02:48:35;;;;;;;13.27;10.02;;;;;;;;;;12661300;23;20677;-74
2022/04/15 02:53:36;;;;;;;11.15;10.10;;;;;;;;;;12660028;23;20813;-74
2022/04/15 02:58:37;;;;;;;11.20;9.77;;;;;;;;;;12662909;23;20243;-74
2022/04/15 03:03:38;;;;;;;10.18;8.68;;;;;;;;;;12636228;23;20718;-74
2022/04/15 03:08:39;;;;;;;11.65;8.75;;;;;;;;;;12659846;23;20185;-74
2022/04/15 03:13:40;;;;;;;8.65;8.05;;;;;;;;;;12659255;23;20566;-73
2022/04/15 03:18:41;;;;;;;11.57;8.80;;;;;;;;;;12660826;23;20173;-74
2022/04/15 03:23:42;;;;;;;11.43;8.55;;;;;;;;;;12660794;23;20236;-74
2022/04/15 03:28:44;;;;;;;8.85;7.95;;;;;;;;;;12660214;23;20649;-74
2022/04/15 03:33:45;;;;;;;8.07;7.15;;;;;;;;;;12659410;23;20267;-74
2022/04/15 03:38:47;;;;;;;7.28;6.57;;;;;;;;;;12657675;23;20244;-74
2022/04/15 03:43:48;;;;;;;6.93;6.43;;;;;;;;;;12657527;23;20208;-73
2022/04/15 03:48:49;;;;;;;9.73;7.05;;;;;;;;;;12654427;23;20398;-74
2022/04/15 03:53:50;;;;;;;7.22;6.45;;;;;;;;;;12653810;23;20604;-75
2022/04/15 03:58:51;;;;;;;8.07;7.30;;;;;;;;;;12630949;23;20184;-75
2022/04/15 04:03:52;;;;;;;8.40;7.57;;;;;;;;;;12655200;23;20665;-74
2022/04/15 04:08:53;;;;;;;9.07;7.30;;;;;;;;;;12664211;23;20185;-74
2022/04/15 04:13:54;;;;;;;7.88;7.28;;;;;;;;;;12664304;23;20560;-74
2022/04/15 04:18:55;;;;;;;8.30;7.60;;;;;;;;;;12639351;23;20192;-75
2022/04/15 04:23:56;;;;;;;9.30;7.53;;;;;;;;;;12664972;23;20221;-73
2022/04/15 04:28:57;;;;;;;8.85;7.70;;;;;;;;;;12667070;23;20272;-74
2022/04/15 04:33:59;;;;;;;9.15;7.57;;;;;;;;;;12664910;23;20205;-75
2022/04/15 04:39:00;;;;;;;10.57;8.50;;;;;;;;;;12664715;23;20296;-75
2022/04/15 04:44:01;;;;;;;9.68;8.35;;;;;;;;;;12664993;23;20792;-75
2022/04/15 04:49:02;;;;;;;10.82;7.93;;;;;;;;;;12665284;23;20574;-75
2022/04/15 04:54:03;;;;;;;13.30;8.13;;;;;;;;;;12664798;23;20223;-75
2022/04/15 04:59:04;;;;;;;9.18;8.15;;;;;;;;;;12663536;23;20301;-75
2022/04/15 05:04:05;;;;;;;10.07;9.10;;;;;;;;;;12664566;23;20204;-75
2022/04/15 05:09:06;;;;;;;11.20;8.52;;;;;;;;;;12665803;23;20184;-75
2022/04/15 05:14:07;;;;;;;9.95;8.98;;;;;;;;;;12664627;23;20196;-73
2022/04/15 05:19:08;;;;;;;14.25;11.55;;;;;;;;;;12665303;23;20180;-74
2022/04/15 05:24:10;;;;;;;12.82;11.35;;;;;;;;;;12658817;23;20191;-74
2022/04/15 05:29:11;;;;;;;12.75;11.18;;;;;;;;;;12660726;23;20635;-74
2022/04/15 05:34:12;;;;;;;13.05;10.48;;;;;;;;;;12661581;23;20211;-74
2022/04/15 05:39:13;;;;;;;15.75;11.15;;;;;;;;;;12662824;23;20173;-74
2022/04/15 05:44:14;;;;;;;11.63;10.13;;;;;;;;;;12659166;23;20252;-73
2022/04/15 05:49:16;;;;;;;13.82;9.85;;;;;;;;;;12655800;23;20260;-75
2022/04/15 05:54:18;;;;;;;12.43;9.60;;;;;;;;;;12657501;23;20330;-74
2022/04/15 05:59:22;;;;;;;11.30;9.88;;;;;;;;;;12656668;23;20177;-74
2022/04/15 06:04:23;;;;;;;10.20;9.30;;;;;;;;;;12659930;23;20204;-74
2022/04/15 06:09:25;;;;;;;9.35;7.85;;;;;;;;;;12663766;23;20181;-75
2022/04/15 06:14:26;;;;;;;11.13;8.13;;;;;;;;;;12664336;23;20204;-74
2022/04/15 06:19:27;;;;;;;8.57;7.78;;;;;;;;;;12662033;23;20177;-74
2022/04/15 06:24:28;;;;;;;7.97;7.18;;;;;;;;;;12662376;23;20180;-75
2022/04/15 06:29:29;;;;;;;7.85;7.07;;;;;;;;;;12663237;23;20181;-74
2022/04/15 06:34:30;;;;;;;8.27;7.30;;;;;;;;;;12667313;23;20301;-75
2022/04/15 06:39:31;;;;;;;7.55;6.85;;;;;;;;;;12664547;23;20259;-75
2022/04/15 06:44:36;;;;;;;9.07;6.53;;;;;;;;;;12669203;23;20216;-76
2022/04/15 06:49:37;;;;;;;7.30;6.70;;;;;;;;;;12637103;23;20240;-74
2022/04/15 06:54:38;;;;;;;7.65;7.05;;;;;;;;;;12666989;23;20517;-75
2022/04/15 06:59:39;;;;;;;8.32;7.55;;;;;;;;;;12669478;23;20235;-75
2022/04/15 07:04:40;;;;;;;7.35;6.65;;;;;;;;;;12661633;23;20227;-74
2022/04/15 07:09:41;;;;;;;11.57;6.78;;;;;;;;;;12662277;23;20331;-73
2022/04/15 07:14:42;;;;;;;7.63;6.97;;;;;;;;;;12660860;23;20655;-72
2022/04/15 07:19:43;;;;;;;8.27;7.20;;;;;;;;;;12662237;23;20188;-73
2022/04/15 07:24:45;;;;;;;8.65;8.00;;;;;;;;;;12658766;23;20200;-74
2022/04/15 07:29:47;;;;;;;8.20;7.50;;;;;;;;;;12660156;23;20647;-73
2022/04/15 07:34:49;;;;;;;7.45;6.95;;;;;;;;;;12660424;23;20204;-74
2022/04/15 07:39:50;;;;;;;6.68;6.13;;;;;;;;;;12656754;23;20627;-75
2022/04/15 07:44:51;;;;;;;6.35;5.85;;;;;;;;;;12599942;23;20734;-74
2022/04/15 07:49:52;;;;;;;6.63;6.13;;;;;;;;;;12597562;23;20582;-74
2022/04/15 07:54:53;;;;;;;6.80;6.20;;;;;;;;;;12598716;23;20245;-74
2022/04/15 07:59:54;;;;;;;6.88;6.38;;;;;;;;;;12599316;23;20212;-74
2022/04/15 08:04:55;;;;;;;7.70;7.20;;;;;;;;;;12587939;23;20223;-74
2022/04/15 08:09:56;;;;;;;7.18;5.38;;;;;;;;;;12601845;23;20264;-75
2022/04/15 08:14:58;;;;;;;5.93;5.43;;;;;;;;;;12571727;23;20239;-74
2022/04/15 08:20:00;;;;;;;6.03;5.72;;;;;;;;;;12600805;23;20648;-74
2022/04/15 08:25:01;;;;;;;7.35;6.70;;;;;;;;;;12597133;23;20185;-75
2022/04/15 08:30:02;;;;;;;6.65;6.05;;;;;;;;;;12596189;23;20625;-74
2022/04/15 08:35:04;;;;;;;5.97;5.68;;;;;;;;;;12590691;23;20205;-73
2022/04/15 08:40:05;;;;;;;6.07;5.68;;;;;;;;;;12601107;23;20280;-75
2022/04/15 08:45:10;;;;;;;6.85;6.25;;;;;;;;;;12597962;23;20253;-74
2022/04/15 08:50:12;;;;;;;6.60;6.20;;;;;;;;;;12599686;23;20237;-74
2022/04/15 08:55:13;;;;;;;5.03;4.72;;;;;;;;;;12598335;23;20194;-74
2022/04/15 09:00:14;;;;;;;5.72;5.43;;;;;;;;;;12587225;23;20604;-71
2022/04/15 09:05:18;;;;;;;5.68;5.28;;;;;;;;;;12598692;23;20252;-75
2022/04/15 09:10:20;;;;;;;5.20;4.53;;;;;;;;;;12603000;23;20261;-76
2022/04/15 09:15:21;;;;;;;6.20;5.80;;;;;;;;;;12602538;23;20244;-75
2022/04/15 09:20:23;;;;;;;5.90;5.50;;;;;;;;;;12599066;23;20207;-74
2022/04/15 09:25:27;;;;;;;5.30;4.90;;;;;;;;;;12587332;23;20574;-77
2022/04/15 09:30:33;;;;;;;6.78;6.13;;;;;;;;;;12601209;23;20936;-77
2022/04/15 09:35:34;;;;;;;5.85;5.32;;;;;;;;;;12597970;23;20223;-74
2022/04/15 09:40:35;;;;;;;5.65;5.35;;;;;;;;;;12599653;23;20268;-75
2022/04/15 09:45:36;;;;;;;6.25;5.85;;;;;;;;;;12598744;23;20185;-75
2022/04/15 09:50:39;;;;;;;7.05;6.55;;;;;;;;;;12598096;23;20186;-75
2022/04/15 09:55:41;;;;;;;6.03;5.63;;;;;;;;;;12596691;23;20272;-81
2022/04/15 10:00:43;;;;;;;6.65;6.07;;;;;;;;;;12596046;23;20536;-72
2022/04/15 10:05:44;;;;;;;6.55;5.95;;;;;;;;;;12599133;23;20964;-67
2022/04/15 10:10:45;;;;;;;8.27;6.07;;;;;;;;;;12601468;23;20874;-73
2022/04/15 10:15:49;;;;;;;6.07;5.68;;;;;;;;;;12603837;23;20193;-74
2022/04/15 10:20:51;;;;;;;5.90;5.50;;;;;;;;;;12589538;23;20185;-72
2022/04/15 10:25:53;;;;;;;5.63;5.15;;;;;;;;;;12603129;23;20266;-74
2022/04/15 10:31:07;;;;;;;6.90;5.85;;;;;;;;;;12603162;23;20193;-74
2022/04/15 10:36:14;;;;;;;5.78;5.45;;;;;;;;;;12603511;23;20196;-74
2022/04/15 10:41:17;;;;;;;7.18;6.55;;;;;;;;;;12604350;23;20593;-74
2022/04/15 10:46:18;;;;;;;6.40;5.75;;;;;;;;;;12596707;23;20209;-75
2022/04/15 10:51:27;;;;;;;7.05;6.38;;;;;;;;;;12574929;23;20682;-73
2022/04/15 10:56:28;;;;;;;6.32;5.93;;;;;;;;;;12601823;23;20173;-75
2022/04/15 11:01:29;;;;;;;7.25;6.60;;;;;;;;;;12603375;23;20928;-74
2022/04/15 11:06:30;;;;;;;6.88;6.20;;;;;;;;;;12600015;23;20190;-72
2022/04/15 11:11:36;;;;;;;6.93;6.32;;;;;;;;;;12599123;23;20850;-72
2022/04/15 11:16:46;;;;;;;7.38;6.68;;;;;;;;;;12598802;23;20200;-73
2022/04/15 11:21:50;;;;;;;8.35;7.05;;;;;;;;;;12598882;23;20193;-72
2022/04/15 11:26:56;;;;;;;7.22;6.68;;;;;;;;;;12600030;23;20189;-72
2022/04/15 11:31:58;;;;;;;7.68;6.88;;;;;;;;;;12601618;23;20599;-70
2022/04/15 11:37:03;;;;;;;8.38;7.55;;;;;;;;;;12597330;23;20796;-71
2022/04/15 11:42:12;;;;;;;7.82;7.10;;;;;;;;;;12596722;23;20699;-71
2022/04/15 11:47:16;;;;;;;8.10;7.13;;;;;;;;;;12595378;23;20189;-71
2022/04/15 11:52:27;;;;;;;7.55;6.85;;;;;;;;;;12596771;23;20695;-70
2022/04/15 11:57:31;;;;;;;7.05;6.50;;;;;;;;;;12596915;23;20196;-73
2022/04/15 12:02:32;;;;;;;8.38;7.50;;;;;;;;;;12594991;23;20332;-72
2022/04/15 12:07:35;;;;;;;9.43;7.32;;;;;;;;;;12597639;23;20189;-70
2022/04/15 12:12:36;;;;;;;9.15;7.75;;;;;;;;;;12594577;23;20648;-70
2022/04/15 12:17:37;;;;;;;8.60;7.72;;;;;;;;;;12596114;23;20200;-70
2022/04/15 12:22:38;;;;;;;8.02;7.32;;;;;;;;;;12597405;23;20196;-70
2022/04/15 12:27:41;;;;;;;8.75;7.95;;;;;;;;;;12596751;23;20181;-71
2022/04/15 12:32:44;;;;;;;11.88;10.68;;;;;;;;;;12596741;23;20201;-70
2022/04/15 12:37:57;;;;;;;12.35;10.88;;;;;;;;;;12597119;23;20189;-70
2022/04/15 12:43:14;;;;;;;10.93;9.55;;;;;;;;;;12638967;23;20287;-71
2022/04/15 12:48:15;;;;;;;12.95;10.60;;;;;;;;;;12631722;23;20192;-70
2022/04/15 12:53:20;;;;;;;18.25;11.43;;;;;;;;;;12657452;23;20204;-69
2022/04/15 12:58:25;;;;;;;17.70;11.55;;;;;;;;;;12658277;23;20173;-72
2022/04/15 13:03:35;;;;;;;15.48;11.95;;;;;;;;;;12656159;23;20617;-71
2022/04/15 13:08:36;;;;;;;16.50;12.30;;;;;;;;;;12658177;23;20196;-71
2022/04/15 13:13:37;;;;;;;19.92;14.57;;;;;;;;;;12657085;23;20201;-74
2022/04/15 13:18:41;;;;;;;19.40;14.63;;;;;;;;;;12656200;23;20188;-69
2022/04/15 13:23:42;;;;;;;22.83;16.38;;;;;;;;;;12657046;23;20627;-72
2022/04/15 13:28:43;;;;;;;22.25;16.15;;;;;;;;;;12653122;23;20192;-71
2022/04/15 13:33:45;;;;;;;19.27;14.13;;;;;;;;;;12654338;23;20208;-71
2022/04/15 13:38:46;;;;;;;18.08;12.88;;;;;;;;;;12656890;23;20173;-68
2022/04/15 13:43:48;;;;;;;20.42;13.02;;;;;;;;;;12620064;23;20263;-70
2022/04/15 13:48:49;;;;;;;17.88;13.75;;;;;;;;;;12655436;23;20528;-70
2022/04/15 13:59:10;;;;;;;12.90;11.30;;;;;;;;;;12655756;23;20195;-70
2022/04/15 14:04:13;;;;;;;17.55;11.00;;;;;;;;;;12651311;23;20204;-71
2022/04/15 14:09:14;;;;;;;12.80;10.90;;;;;;;;;;12652137;23;20715;-70
2022/04/15 14:14:16;;;;;;;14.05;11.35;;;;;;;;;;12652657;23;20203;-71
2022/04/15 14:19:17;;;;;;;15.82;11.35;;;;;;;;;;12653646;23;20264;-71
2022/04/15 14:24:18;;;;;;;15.40;12.45;;;;;;;;;;12657479;23;20177;-71
2022/04/15 14:29:19;;;;;;;16.83;11.13;;;;;;;;;;12655524;23;20239;-72
2022/04/15 14:34:22;;;;;;;14.05;11.38;;;;;;;;;;12656857;23;20324;-71
2022/04/15 14:39:23;;;;;;;13.88;10.10;;;;;;;;;;12656287;23;20177;-71
2022/04/15 14:44:24;;;;;;;13.82;10.65;;;;;;;;;;12655022;23;20662;-71
2022/04/15 14:49:25;;;;;;;16.38;11.35;;;;;;;;;;12657943;23;20184;-71
2022/04/15 14:54:26;;;;;;;21.75;14.07;;;;;;;;;;12653004;23;20193;-71
2022/04/15 14:59:27;;;;;;;26.67;15.70;;;;;;;;;;12658328;23;20318;-71
2022/04/15 15:04:28;;;;;;;26.48;16.30;;;;;;;;;;12659677;23;20201;-72
2022/04/15 15:09:30;;;;;;;21.70;14.93;;;;;;;;;;12660001;23;20176;-72
2022/04/15 15:14:31;;;;;;;17.45;12.63;;;;;;;;;;12660716;23;20192;-72
2022/04/15 15:19:32;;;;;;;14.93;10.95;;;;;;;;;;12660750;23;20181;-72
2022/04/15 15:29:53;;;;;;;18.23;12.75;;;;;;;;;;12660537;23;20258;-71
2022/04/15 15:34:54;;;;;;;16.33;12.05;;;;;;;;;;12655789;23;20204;-71
2022/04/15 15:39:56;;;;;;;14.85;10.73;;;;;;;;;;12657144;23;20211;-72
2022/04/15 15:44:57;;;;;;;13.75;11.23;;;;;;;;;;12658210;23;20617;-72
2022/04/15 15:49:58;;;;;;;15.00;10.63;;;;;;;;;;12648582;23;20205;-72
2022/04/15 15:54:59;;;;;;;15.73;10.77;;;;;;;;;;12661226;23;20227;-71
2022/04/15 16:00:00;;;;;;;13.65;9.85;;;;;;;;;;12656823;23;20631;-72
2022/04/15 16:05:01;;;;;;;17.02;11.75;;;;;;;;;;12655864;23;20207;-72
2022/04/15 16:10:02;;;;;;;14.48;10.02;;;;;;;;;;12658802;23;20812;-72
2022/04/15 16:15:03;;;;;;;14.15;10.13;;;;;;;;;;12661066;23;20197;-72
2022/04/15 16:20:05;;;;;;;17.60;10.70;;;;;;;;;;12646095;23;20193;-72
2022/04/15 16:25:07;;;;;;;12.90;10.02;;;;;;;;;;12661205;23;20189;-73
2022/04/15 16:30:09;;;;;;;13.18;9.68;;;;;;;;;;12661358;23;20199;-71
2022/04/15 16:35:11;;;;;;;14.38;10.18;;;;;;;;;;12659893;23;20288;-72
2022/04/15 16:40:12;;;;;;;12.75;10.23;;;;;;;;;;12659501;23;20219;-72
2022/04/15 16:45:13;;;;;;;16.35;10.75;;;;;;;;;;12648114;23;20710;-71
2022/04/15 16:50:16;;;;;;;16.92;13.13;;;;;;;;;;12660834;23;20177;-72
2022/04/15 17:00:37;;;;;;;16.52;14.35;;;;;;;;;;12657141;23;20260;-69
2022/04/15 17:05:40;;;;;;;11.88;9.45;;;;;;;;;;12656108;23;20282;-71
2022/04/15 17:10:41;;;;;;;12.32;10.40;;;;;;;;;;12655372;23;20524;-70
2022/04/15 17:15:42;;;;;;;10.25;9.20;;;;;;;;;;12644073;23;20216;-71
2022/04/15 17:20:43;;;;;;;13.48;10.60;;;;;;;;;;12658082;23;20188;-70
2022/04/15 17:25:45;;;;;;;13.43;10.25;;;;;;;;;;12656229;23;20199;-70
2022/04/15 17:30:50;;;;;;;14.13;10.93;;;;;;;;;;12656913;23;20296;-71
2022/04/15 17:35:51;;;;;;;12.15;10.88;;;;;;;;;;12656645;23;20227;-71
2022/04/15 17:40:52;;;;;;;11.80;10.45;;;;;;;;;;12643286;23;20200;-72
2022/04/15 17:45:54;;;;;;;15.13;11.85;;;;;;;;;;12657580;23;20572;-72
2022/04/15 17:50:55;;;;;;;12.75;10.70;;;;;;;;;;12656282;23;20189;-71
2022/04/15 17:55:56;;;;;;;13.45;11.02;;;;;;;;;;12657652;23;20197;-71
2022/04/15 18:00:57;;;;;;;17.92;11.40;;;;;;;;;;12655431;23;20204;-71
2022/04/15 18:05:58;;;;;;;15.18;11.55;;;;;;;;;;12657351;23;20204;-71
2022/04/15 18:10:59;;;;;;;14.88;10.82;;;;;;;;;;12644320;23;20208;-71
2022/04/15 18:16:00;;;;;;;13.95;12.32;;;;;;;;;;12656038;23;20238;-70
2022/04/15 18:21:01;;;;;;;15.35;12.65;;;;;;;;;;12657522;23;20211;-70
2022/04/15 18:26:03;;;;;;;15.05;11.80;;;;;;;;;;12656035;23;20588;-71
2022/04/15 18:31:05;;;;;;;17.30;11.77;;;;;;;;;;12659983;23;20209;-71
2022/04/15 18:36:06;;;;;;;13.75;11.30;;;;;;;;;;12648054;23;20201;-69
2022/04/15 18:41:07;;;;;;;13.75;11.48;;;;;;;;;;12660459;23;20204;-68
2022/04/15 18:46:08;;;;;;;11.32;10.18;;;;;;;;;;12632156;23;20243;-70
2022/04/15 18:56:29;;;;;;;14.38;10.45;;;;;;;;;;12658375;23;20275;-72
2022/04/15 19:01:30;;;;;;;11.15;9.45;;;;;;;;;;12648009;23;20252;-72
2022/04/15 19:06:31;;;;;;;15.57;9.63;;;;;;;;;;12658323;23;20181;-71
2022/04/15 19:11:32;;;;;;;10.85;8.93;;;;;;;;;;12636401;23;20188;-70
2022/04/15 19:16:34;;;;;;;12.27;9.38;;;;;;;;;;12662460;23;20177;-70
2022/04/15 19:21:35;;;;;;;11.77;9.25;;;;;;;;;;12661792;23;20188;-71
2022/04/15 19:26:40;;;;;;;16.15;10.77;;;;;;;;;;12663254;23;20188;-70
2022/04/15 19:31:41;;;;;;;12.88;9.77;;;;;;;;;;12648558;23;20205;-71
2022/04/15 19:36:43;;;;;;;16.85;11.98;;;;;;;;;;12661618;23;20691;-71
2022/04/15 19:41:44;;;;;;;15.70;11.52;;;;;;;;;;12661623;23;20243;-72
2022/04/15 19:46:46;;;;;;;17.42;11.45;;;;;;;;;;12660085;23;20196;-70
2022/04/15 19:51:48;;;;;;;20.13;12.07;;;;;;;;;;12656625;23;20201;-71
2022/04/15 20:02:09;;;;;;;22.52;13.80;;;;;;;;;;12659383;23;20229;-70
2022/04/15 20:07:10;;;;;;;18.02;11.73;;;;;;;;;;12659968;23;20271;-71
2022/04/15 20:12:11;;;;;;;19.27;11.30;;;;;;;;;;12660996;23;20189;-73
2022/04/15 20:17:12;;;;;;;27.05;14.43;;;;;;;;;;12658481;23;20181;-71
2022/04/15 20:22:14;;;;;;;25.50;13.90;;;;;;;;;;12654525;23;20200;-71
2022/04/15 20:27:15;;;;;;;24.42;13.95;;;;;;;;;;12656395;23;20188;-72
2022/04/15 20:32:18;;;;;;;24.08;14.77;;;;;;;;;;12657870;23;20197;-73
2022/04/15 20:37:19;;;;;;;28.10;14.38;;;;;;;;;;12658279;23;20204;-72
2022/04/15 20:42:20;;;;;;;30.63;15.77;;;;;;;;;;12659766;23;20667;-72
2022/04/15 20:47:21;;;;;;;26.13;14.50;;;;;;;;;;12635037;23;20213;-72
2022/04/15 20:52:24;;;;;;;24.88;13.70;;;;;;;;;;12647017;23;20192;-72
2022/04/15 20:57:25;;;;;;;25.85;13.57;;;;;;;;;;12660962;23;20200;-72
2022/04/15 21:02:27;;;;;;;23.52;12.65;;;;;;;;;;12660002;23;20285;-72
2022/04/15 21:07:28;;;;;;;25.52;12.85;;;;;;;;;;12659625;23;20638;-71
2022/04/15 21:12:30;;;;;;;21.42;13.13;;;;;;;;;;12660997;23;20615;-65
2022/04/15 21:17:31;;;;;;;22.15;12.13;;;;;;;;;;12661454;23;20514;-72
2022/04/15 21:22:32;;;;;;;25.77;12.52;;;;;;;;;;12649430;23;20189;-71
2022/04/15 21:27:33;;;;;;;22.10;12.55;;;;;;;;;;12660692;23;20515;-72
2022/04/15 21:32:34;;;;;;;22.70;12.50;;;;;;;;;;12657703;23;20542;-71
2022/04/15 21:37:36;;;;;;;22.45;12.70;;;;;;;;;;12660649;23;20508;-71
2022/04/15 21:42:37;;;;;;;29.33;13.50;;;;;;;;;;12659928;23;20240;-72
2022/04/15 21:47:38;;;;;;;26.80;12.90;;;;;;;;;;12649387;23;20268;-72
2022/04/15 21:52:40;;;;;;;21.88;11.27;;;;;;;;;;12647903;23;20223;-71
2022/04/15 21:57:41;;;;;;;23.77;10.25;;;;;;;;;;12660648;23;20259;-72
2022/04/15 22:02:43;;;;;;;16.00;8.65;;;;;;;;;;12661586;23;20227;-71
2022/04/15 22:07:45;;;;;;;12.95;8.63;;;;;;;;;;12665471;23;20207;-72
2022/04/15 22:12:46;;;;;;;10.90;7.22;;;;;;;;;;12661944;23;20211;-73
2022/04/15 22:17:47;;;;;;;10.82;6.75;;;;;;;;;;12665021;23;20719;-72
2022/04/15 22:22:48;;;;;;;8.07;5.82;;;;;;;;;;12663267;23;20173;-72
2022/04/15 22:27:50;;;;;;;11.65;7.00;;;;;;;;;;12663987;23;20184;-71
2022/04/15 22:32:51;;;;;;;10.05;7.35;;;;;;;;;;12635944;23;20589;-72
2022/04/15 22:37:52;;;;;;;10.98;7.25;;;;;;;;;;12660196;23;20181;-72
2022/04/15 22:42:53;;;;;;;14.35;7.20;;;;;;;;;;12663624;23;20205;-72
2022/04/15 22:48:00;;;;;;;11.98;6.47;;;;;;;;;;12663551;23;20227;-72
2022/04/15 22:53:01;;;;;;;10.85;6.53;;;;;;;;;;12663534;23;20216;-72
2022/04/15 22:58:02;;;;;;;12.63;6.53;;;;;;;;;;12664009;23;20634;-72
2022/04/15 23:03:04;;;;;;;10.38;5.55;;;;;;;;;;12660263;23;20201;-72
2022/04/15 23:08:05;;;;;;;6.60;5.18;;;;;;;;;;12659222;23;20181;-71
2022/04/15 23:13:07;;;;;;;6.78;5.20;;;;;;;;;;12633535;23;20276;-72
2022/04/15 23:18:10;;;;;;;4.78;4.38;;;;;;;;;;12662417;23;20626;-73
2022/04/15 23:23:11;;;;;;;3.33;3.13;;;;;;;;;;12662466;23;20192;-71
2022/04/15 23:28:12;;;;;;;3.50;2.88;;;;;;;;;;12662075;23;20477;-71
2022/04/15 23:33:13;;;;;;;3.53;2.40;;;;;;;;;;12658355;23;20205;-72
2022/04/15 23:38:14;;;;;;;2.22;2.13;;;;;;;;;;12659974;23;20228;-72
2022/04/15 23:43:19;;;;;;;1.92;1.67;;;;;;;;;;12660706;23;20208;-72
2022/04/15 23:48:37;;;;;;;1.77;1.75;;;;;;;;;;12662222;23;20315;-73
2022/04/15 23:53:40;;;;;;;1.60;1.60;;;;;;;;;;12633774;23;20200;-72
2022/04/15 23:58:44;;;;;;;1.75;1.65;;;;;;;;;;12660124;23;20606;-72
